Time;durP1;ratioP1;P1;durP2;ratioP2;P2;SDS_P1;SDS_P2;PMS_P1;PMS_P2;Temp;Humidity;BMP_temperature;BMP_pressure;BME280_temperature;BME280_humidity;BME280_pressure;Samples;Min_cycle;Max_cycle;Signal;HPM_P1;HPM_P2
2022/05/05 00:00:06;;;;;;;18.77;7.35;;;;;;;;;;5004772;28;20051;-78
2022/05/05 00:02:33;;;;;;;18.33;7.13;;;;;;;;;;4987063;28;20137;-78
2022/05/05 00:04:59;;;;;;;14.80;6.32;;;;;;;;;;5002866;28;20145;-78
2022/05/05 00:07:26;;;;;;;16.45;7.32;;;;;;;;;;5003791;28;20058;-78
2022/05/05 00:09:52;;;;;;;19.23;6.97;;;;;;;;;;5005037;28;20576;-77
2022/05/05 00:15:24;;;;;;;11.82;5.93;;;;;;;;;;4955982;28;20116;-78
2022/05/05 00:17:51;;;;;;;14.68;7.38;;;;;;;;;;4944135;28;20588;-78
2022/05/05 00:20:17;;;;;;;16.98;6.93;;;;;;;;;;4973147;28;20080;-78
2022/05/05 00:22:43;;;;;;;17.05;6.40;;;;;;;;;;5003465;28;20133;-78
2022/05/05 00:25:10;;;;;;;14.88;6.38;;;;;;;;;;5004929;28;20084;-78
2022/05/05 00:27:36;;;;;;;14.27;6.60;;;;;;;;;;5003549;28;20141;-78
2022/05/05 00:30:03;;;;;;;16.35;6.63;;;;;;;;;;5003166;28;20592;-77
2022/05/05 00:32:29;;;;;;;15.30;6.85;;;;;;;;;;5000427;28;20056;-78
2022/05/05 00:34:55;;;;;;;16.70;7.10;;;;;;;;;;5005580;28;20059;-78
2022/05/05 00:37:21;;;;;;;17.17;6.68;;;;;;;;;;5020878;28;20078;-78
2022/05/05 00:39:48;;;;;;;17.67;6.68;;;;;;;;;;5020010;28;20134;-78
2022/05/05 00:42:14;;;;;;;16.60;6.40;;;;;;;;;;5021250;28;20537;-77
2022/05/05 00:44:41;;;;;;;14.98;6.13;;;;;;;;;;5001898;28;20068;-77
2022/05/05 00:47:08;;;;;;;12.93;6.03;;;;;;;;;;5008637;28;20082;-78
2022/05/05 00:49:34;;;;;;;15.77;6.38;;;;;;;;;;4987130;28;20149;-78
2022/05/05 00:52:00;;;;;;;15.13;6.65;;;;;;;;;;5004211;28;20145;-77
2022/05/05 00:54:27;;;;;;;16.80;6.47;;;;;;;;;;5003847;28;20055;-78
2022/05/05 00:56:53;;;;;;;13.18;6.30;;;;;;;;;;5003459;28;20042;-78
2022/05/05 00:59:20;;;;;;;14.93;6.55;;;;;;;;;;5004938;28;20050;-78
2022/05/05 01:01:46;;;;;;;13.02;6.57;;;;;;;;;;5003751;28;20057;-78
2022/05/05 01:04:13;;;;;;;12.45;5.75;;;;;;;;;;5003603;28;20058;-78
2022/05/05 01:06:40;;;;;;;14.43;5.97;;;;;;;;;;5004236;28;20144;-78
2022/05/05 01:09:06;;;;;;;13.52;6.00;;;;;;;;;;5001220;28;20060;-77
2022/05/05 01:11:33;;;;;;;16.52;6.47;;;;;;;;;;5003282;28;20092;-78
2022/05/05 01:13:59;;;;;;;12.65;6.43;;;;;;;;;;5001678;28;20133;-78
2022/05/05 01:16:26;;;;;;;11.35;5.60;;;;;;;;;;5004016;28;20054;-78
2022/05/05 01:18:55;;;;;;;15.80;6.15;;;;;;;;;;5003632;28;20521;-78
2022/05/05 01:21:22;;;;;;;13.85;5.50;;;;;;;;;;5014407;28;20142;-77
2022/05/05 01:23:49;;;;;;;10.95;5.95;;;;;;;;;;5016322;28;20133;-77
2022/05/05 01:29:01;;;;;;;12.27;5.88;;;;;;;;;;4990142;28;20473;-78
2022/05/05 01:31:27;;;;;;;12.38;5.85;;;;;;;;;;5004505;28;20886;-78
2022/05/05 01:33:54;;;;;;;10.07;5.65;;;;;;;;;;5015019;28;20051;-77
2022/05/05 01:36:20;;;;;;;11.02;5.68;;;;;;;;;;4999477;28;20157;-76
2022/05/05 01:38:47;;;;;;;13.35;6.00;;;;;;;;;;4999901;28;20112;-76
2022/05/05 01:41:14;;;;;;;15.95;5.40;;;;;;;;;;4999240;28;20584;-76
2022/05/05 01:43:44;;;;;;;11.05;5.78;;;;;;;;;;5001093;28;20142;-78
2022/05/05 01:46:10;;;;;;;11.23;5.72;;;;;;;;;;5000627;28;20509;-76
2022/05/05 01:48:36;;;;;;;13.57;6.05;;;;;;;;;;5003821;28;20052;-77
2022/05/05 01:51:03;;;;;;;16.75;6.32;;;;;;;;;;5005305;28;20058;-77
2022/05/05 01:53:36;;;;;;;13.93;5.82;;;;;;;;;;5003455;28;20065;-77
2022/05/05 01:56:04;;;;;;;11.30;5.85;;;;;;;;;;5000833;28;20085;-77
2022/05/05 01:58:31;;;;;;;14.63;6.70;;;;;;;;;;4999578;28;20224;-77
2022/05/05 02:00:58;;;;;;;12.18;5.85;;;;;;;;;;5003571;28;20057;-77
2022/05/05 02:03:24;;;;;;;11.98;6.28;;;;;;;;;;5002665;28;20511;-77
2022/05/05 02:05:50;;;;;;;13.35;5.88;;;;;;;;;;5004070;28;20274;-77
2022/05/05 02:08:17;;;;;;;13.88;6.10;;;;;;;;;;5004230;28;20142;-77
2022/05/05 02:10:44;;;;;;;15.90;5.43;;;;;;;;;;5021637;28;20047;-77
2022/05/05 02:13:10;;;;;;;15.75;6.10;;;;;;;;;;5017868;28;20678;-77
2022/05/05 02:15:36;;;;;;;12.57;5.68;;;;;;;;;;4989519;28;20046;-77
2022/05/05 02:18:08;;;;;;;14.20;6.32;;;;;;;;;;5005824;28;20142;-77
2022/05/05 02:20:35;;;;;;;18.83;6.25;;;;;;;;;;5006548;28;20485;-77
2022/05/05 02:23:01;;;;;;;12.93;5.22;;;;;;;;;;5006939;28;20088;-77
2022/05/05 02:25:28;;;;;;;11.98;5.47;;;;;;;;;;5005815;28;20050;-77
2022/05/05 02:27:54;;;;;;;12.80;5.70;;;;;;;;;;5006466;28;20062;-77
2022/05/05 02:30:21;;;;;;;12.20;5.53;;;;;;;;;;5005839;28;20085;-77
2022/05/05 02:32:48;;;;;;;11.25;5.55;;;;;;;;;;5006917;28;20136;-77
2022/05/05 02:35:14;;;;;;;11.50;5.20;;;;;;;;;;5004926;28;20050;-77
2022/05/05 02:40:26;;;;;;;14.20;5.70;;;;;;;;;;5000070;28;20089;-76
2022/05/05 02:42:56;;;;;;;16.13;6.32;;;;;;;;;;4997508;28;20056;-77
2022/05/05 02:45:22;;;;;;;11.82;5.88;;;;;;;;;;5006184;28;20523;-77
2022/05/05 02:47:49;;;;;;;13.68;6.45;;;;;;;;;;5006833;28;20093;-77
2022/05/05 02:50:16;;;;;;;14.07;6.07;;;;;;;;;;5004639;28;20206;-77
2022/05/05 02:52:42;;;;;;;13.55;6.10;;;;;;;;;;5007803;28;20062;-76
2022/05/05 02:55:09;;;;;;;15.07;6.65;;;;;;;;;;5005064;28;20062;-76
2022/05/05 02:57:35;;;;;;;14.98;6.97;;;;;;;;;;5005170;28;20054;-77
2022/05/05 03:00:03;;;;;;;13.02;6.60;;;;;;;;;;5006815;28;20489;-77
2022/05/05 03:02:30;;;;;;;18.27;6.70;;;;;;;;;;5005141;28;20520;-77
2022/05/05 03:04:56;;;;;;;14.30;5.72;;;;;;;;;;5005800;28;20143;-77
2022/05/05 03:07:22;;;;;;;13.88;6.20;;;;;;;;;;5005151;28;20105;-77
2022/05/05 03:09:49;;;;;;;13.77;6.25;;;;;;;;;;5006500;28;20518;-77
2022/05/05 03:12:15;;;;;;;16.20;6.47;;;;;;;;;;5021138;28;20591;-77
2022/05/05 03:14:43;;;;;;;9.93;5.18;;;;;;;;;;5005216;28;20049;-77
2022/05/05 03:17:09;;;;;;;10.05;4.90;;;;;;;;;;5005241;28;20440;-77
2022/05/05 03:19:35;;;;;;;10.05;5.15;;;;;;;;;;5003356;28;20512;-77
2022/05/05 03:22:03;;;;;;;10.00;4.90;;;;;;;;;;5021608;28;20084;-77
2022/05/05 03:24:29;;;;;;;9.38;4.68;;;;;;;;;;5020893;28;20523;-77
2022/05/05 03:26:56;;;;;;;12.85;4.72;;;;;;;;;;4990888;28;20086;-77
2022/05/05 03:29:23;;;;;;;11.65;4.68;;;;;;;;;;4985715;28;20061;-78
2022/05/05 03:31:50;;;;;;;10.32;4.82;;;;;;;;;;4997404;28;20057;-77
2022/05/05 03:34:16;;;;;;;13.05;5.05;;;;;;;;;;5005641;28;20109;-77
2022/05/05 03:36:43;;;;;;;12.48;5.50;;;;;;;;;;5005761;28;20875;-77
2022/05/05 03:39:09;;;;;;;10.90;5.32;;;;;;;;;;5003455;28;20127;-77
2022/05/05 03:41:35;;;;;;;11.15;5.68;;;;;;;;;;5002681;28;20142;-76
2022/05/05 03:44:03;;;;;;;13.32;5.60;;;;;;;;;;5005638;28;20061;-77
2022/05/05 03:46:30;;;;;;;11.18;5.82;;;;;;;;;;5002810;28;20157;-77
2022/05/05 03:48:57;;;;;;;10.35;5.10;;;;;;;;;;5004632;28;20136;-77
2022/05/05 03:51:23;;;;;;;11.35;4.90;;;;;;;;;;5003251;28;20050;-77
2022/05/05 03:53:49;;;;;;;9.25;3.80;;;;;;;;;;5003760;28;20085;-77
2022/05/05 03:56:15;;;;;;;8.48;3.47;;;;;;;;;;5003159;28;20505;-77
2022/05/05 03:58:42;;;;;;;9.55;3.80;;;;;;;;;;5006054;28;20066;-77
2022/05/05 04:01:08;;;;;;;7.05;3.88;;;;;;;;;;5003823;28;20089;-77
2022/05/05 04:03:43;;;;;;;12.32;3.90;;;;;;;;;;5004518;28;20060;-77
2022/05/05 04:06:10;;;;;;;8.65;4.80;;;;;;;;;;5004976;28;20148;-77
2022/05/05 04:08:37;;;;;;;12.57;5.70;;;;;;;;;;5002771;28;20173;-77
2022/05/05 04:11:07;;;;;;;12.63;6.53;;;;;;;;;;5003595;28;20059;-77
2022/05/05 04:13:33;;;;;;;12.18;5.80;;;;;;;;;;5001652;28;20056;-77
2022/05/05 04:16:06;;;;;;;14.50;6.30;;;;;;;;;;5003750;28;20270;-76
2022/05/05 04:18:33;;;;;;;15.70;6.47;;;;;;;;;;5017696;28;20137;-77
2022/05/05 04:20:59;;;;;;;13.38;5.88;;;;;;;;;;5002742;28;20064;-77
2022/05/05 04:23:26;;;;;;;13.15;5.97;;;;;;;;;;5003383;28;20449;-77
2022/05/05 04:26:10;;;;;;;11.23;5.80;;;;;;;;;;5003660;28;20118;-77
2022/05/05 04:28:36;;;;;;;13.45;5.93;;;;;;;;;;5001800;28;20059;-77
2022/05/05 04:31:03;;;;;;;21.08;6.75;;;;;;;;;;5002448;28;20054;-77
2022/05/05 04:33:29;;;;;;;14.48;7.32;;;;;;;;;;5001094;28;20563;-77
2022/05/05 04:35:56;;;;;;;16.75;7.00;;;;;;;;;;5001337;28;20064;-77
2022/05/05 04:38:23;;;;;;;17.40;8.48;;;;;;;;;;5001941;28;20054;-77
2022/05/05 04:40:49;;;;;;;19.50;7.68;;;;;;;;;;5001426;28;20457;-77
2022/05/05 04:43:16;;;;;;;17.15;7.95;;;;;;;;;;5002151;28;20859;-77
2022/05/05 04:45:43;;;;;;;18.60;9.00;;;;;;;;;;5003089;28;20050;-77
2022/05/05 04:48:09;;;;;;;20.30;9.07;;;;;;;;;;5016948;28;20054;-77
2022/05/05 04:50:35;;;;;;;17.02;8.73;;;;;;;;;;5014388;28;20065;-77
2022/05/05 04:53:02;;;;;;;22.48;9.30;;;;;;;;;;4982935;28;20055;-77
2022/05/05 04:55:28;;;;;;;17.52;9.30;;;;;;;;;;4987776;28;20420;-77
2022/05/05 04:57:54;;;;;;;22.98;9.05;;;;;;;;;;5004083;28;20106;-77
2022/05/05 05:00:22;;;;;;;22.67;9.00;;;;;;;;;;5004749;28;20058;-77
2022/05/05 05:02:49;;;;;;;18.38;9.77;;;;;;;;;;5005707;28;20490;-78
2022/05/05 05:05:15;;;;;;;18.83;8.40;;;;;;;;;;5003099;28;20689;-77
2022/05/05 05:07:41;;;;;;;16.25;7.78;;;;;;;;;;4984968;28;20058;-77
2022/05/05 05:10:08;;;;;;;18.88;8.48;;;;;;;;;;5003942;28;20060;-77
2022/05/05 05:12:35;;;;;;;21.65;9.07;;;;;;;;;;5004443;28;20133;-77
2022/05/05 05:15:02;;;;;;;23.42;8.43;;;;;;;;;;5003160;28;20313;-77
2022/05/05 05:17:28;;;;;;;17.67;8.25;;;;;;;;;;5004321;28;20054;-77
2022/05/05 05:19:54;;;;;;;16.92;8.15;;;;;;;;;;5004294;28;20201;-77
2022/05/05 05:22:22;;;;;;;19.75;7.85;;;;;;;;;;5003163;28;20054;-77
2022/05/05 05:24:48;;;;;;;15.82;7.97;;;;;;;;;;5004724;28;20501;-77
2022/05/05 05:27:15;;;;;;;23.92;8.57;;;;;;;;;;5019620;28;20097;-77
2022/05/05 05:29:41;;;;;;;16.73;8.02;;;;;;;;;;5004781;28;20058;-77
2022/05/05 05:32:07;;;;;;;18.25;8.90;;;;;;;;;;5003718;28;20636;-77
2022/05/05 05:34:34;;;;;;;21.67;9.13;;;;;;;;;;5004352;28;20069;-77
2022/05/05 05:37:00;;;;;;;14.27;7.60;;;;;;;;;;4994021;28;20548;-77
2022/05/05 05:39:26;;;;;;;16.83;8.07;;;;;;;;;;4999745;28;20558;-77
2022/05/05 05:41:53;;;;;;;20.23;8.80;;;;;;;;;;5017469;28;20499;-77
2022/05/05 05:44:20;;;;;;;19.75;8.68;;;;;;;;;;5008342;28;20061;-77
2022/05/05 05:46:46;;;;;;;17.40;8.60;;;;;;;;;;5009798;28;20046;-77
2022/05/05 05:49:13;;;;;;;18.20;9.15;;;;;;;;;;5007338;28;20061;-77
2022/05/05 05:51:40;;;;;;;20.10;8.88;;;;;;;;;;5009717;28;20058;-77
2022/05/05 05:54:06;;;;;;;18.70;8.48;;;;;;;;;;5008636;28;20054;-77
2022/05/05 05:56:32;;;;;;;18.58;8.95;;;;;;;;;;5010351;28;20554;-77
2022/05/05 05:59:01;;;;;;;22.25;9.15;;;;;;;;;;5007954;28;20062;-77
2022/05/05 06:03:53;;;;;;;19.60;9.63;;;;;;;;;;5025396;28;20062;-77
2022/05/05 06:04:14;;;;;;;23.88;9.85;;;;;;;;;;5008585;28;20058;-77
2022/05/05 06:06:41;;;;;;;21.00;9.07;;;;;;;;;;5009798;28;20184;-77
2022/05/05 06:09:07;;;;;;;18.48;9.43;;;;;;;;;;5011587;28;20054;-77
2022/05/05 06:11:35;;;;;;;17.00;9.52;;;;;;;;;;5010091;28;20060;-78
2022/05/05 06:14:04;;;;;;;20.73;9.02;;;;;;;;;;5008310;28;20181;-78
2022/05/05 06:16:30;;;;;;;18.90;9.20;;;;;;;;;;5022457;28;20459;-78
2022/05/05 06:18:56;;;;;;;24.52;9.82;;;;;;;;;;5022038;28;20291;-77
2022/05/05 06:21:23;;;;;;;20.95;9.45;;;;;;;;;;4994558;28;20501;-78
2022/05/05 06:23:49;;;;;;;20.08;9.30;;;;;;;;;;5008124;28;20149;-78
2022/05/05 06:26:15;;;;;;;23.20;9.35;;;;;;;;;;5010796;28;20065;-77
2022/05/05 06:28:43;;;;;;;19.73;8.80;;;;;;;;;;5012349;28;20135;-77
2022/05/05 06:31:11;;;;;;;20.70;9.43;;;;;;;;;;5020086;28;20057;-77
2022/05/05 06:33:38;;;;;;;19.73;9.35;;;;;;;;;;5023939;28;20058;-77
2022/05/05 06:36:04;;;;;;;19.60;9.82;;;;;;;;;;5014702;28;20051;-78
2022/05/05 06:38:32;;;;;;;17.38;8.15;;;;;;;;;;4993970;28;20141;-78
2022/05/05 06:40:59;;;;;;;18.35;8.93;;;;;;;;;;5008127;28;20063;-77
2022/05/05 06:43:25;;;;;;;23.13;9.80;;;;;;;;;;5009256;28;20145;-76
2022/05/05 06:45:51;;;;;;;19.17;8.88;;;;;;;;;;5009515;28;20481;-77
2022/05/05 06:48:18;;;;;;;18.80;9.23;;;;;;;;;;5007944;28;20069;-77
2022/05/05 06:50:44;;;;;;;24.27;9.18;;;;;;;;;;5008082;28;20056;-77
2022/05/05 06:53:11;;;;;;;22.65;9.75;;;;;;;;;;5009629;28;20228;-77
2022/05/05 06:55:37;;;;;;;20.20;9.07;;;;;;;;;;5004628;28;20867;-77
2022/05/05 06:58:03;;;;;;;18.17;9.00;;;;;;;;;;5006206;28;20057;-77
2022/05/05 07:01:51;;;;;;;21.08;9.60;;;;;;;;;;5006802;28;20057;-78
2022/05/05 07:03:16;;;;;;;18.13;9.10;;;;;;;;;;5006056;28;20062;-78
2022/05/05 07:05:42;;;;;;;16.25;8.43;;;;;;;;;;5004042;28;20057;-78
2022/05/05 07:08:08;;;;;;;22.90;9.27;;;;;;;;;;5020649;28;20145;-77
2022/05/05 07:10:53;;;;;;;22.90;8.80;;;;;;;;;;5006532;28;20060;-77
2022/05/05 07:13:20;;;;;;;22.15;9.23;;;;;;;;;;5005651;28;20263;-78
2022/05/05 07:15:47;;;;;;;19.33;8.18;;;;;;;;;;5002997;28;20065;-77
2022/05/05 07:18:13;;;;;;;17.88;8.70;;;;;;;;;;5005951;28;20532;-78
2022/05/05 07:20:39;;;;;;;21.65;8.88;;;;;;;;;;5007082;28;20058;-77
2022/05/05 07:23:10;;;;;;;22.95;8.88;;;;;;;;;;5005663;28;20065;-77
2022/05/05 07:25:36;;;;;;;22.08;8.70;;;;;;;;;;5006335;28;20058;-77
2022/05/05 07:28:04;;;;;;;18.60;9.15;;;;;;;;;;5005311;28;20058;-78
2022/05/05 07:30:30;;;;;;;20.15;8.73;;;;;;;;;;5005652;28;20050;-77
2022/05/05 07:32:57;;;;;;;24.33;10.27;;;;;;;;;;5004622;28;20173;-77
2022/05/05 07:35:23;;;;;;;24.55;10.02;;;;;;;;;;5005268;28;20060;-77
2022/05/05 07:37:50;;;;;;;18.50;8.98;;;;;;;;;;5002782;28;20054;-77
2022/05/05 07:40:16;;;;;;;22.00;9.23;;;;;;;;;;5005341;28;20054;-77
2022/05/05 07:42:42;;;;;;;20.42;9.32;;;;;;;;;;5006131;28;20872;-77
2022/05/05 07:45:09;;;;;;;21.75;9.45;;;;;;;;;;5004674;28;20054;-77
2022/05/05 07:47:35;;;;;;;27.15;9.43;;;;;;;;;;5002307;28;20514;-77
2022/05/05 07:50:02;;;;;;;18.45;9.20;;;;;;;;;;5003928;28;20084;-77
2022/05/05 07:52:29;;;;;;;22.77;9.57;;;;;;;;;;5001990;28;20149;-77
2022/05/05 07:54:55;;;;;;;20.05;9.00;;;;;;;;;;5004120;28;20374;-77
2022/05/05 07:57:22;;;;;;;20.38;8.88;;;;;;;;;;5003571;28;20062;-77
2022/05/05 07:59:49;;;;;;;19.42;9.30;;;;;;;;;;5006710;28;20643;-77
2022/05/05 08:02:19;;;;;;;19.88;8.35;;;;;;;;;;5001504;28;20054;-77
2022/05/05 08:04:45;;;;;;;27.58;9.05;;;;;;;;;;4999330;28;20608;-77
2022/05/05 08:07:12;;;;;;;22.90;9.20;;;;;;;;;;5003396;28;21019;-77
2022/05/05 08:09:38;;;;;;;22.60;9.48;;;;;;;;;;5001786;28;20513;-77
2022/05/05 08:12:25;;;;;;;19.67;9.20;;;;;;;;;;5004664;28;20062;-78
2022/05/05 08:14:51;;;;;;;23.67;8.90;;;;;;;;;;5002681;28;20084;-78
2022/05/05 08:17:17;;;;;;;20.98;8.85;;;;;;;;;;5005371;28;20190;-78
2022/05/05 08:19:44;;;;;;;17.98;8.90;;;;;;;;;;5002071;28;20066;-78
2022/05/05 08:22:10;;;;;;;16.25;8.15;;;;;;;;;;5003931;28;20057;-77
2022/05/05 08:30:07;;;;;;;17.08;8.73;;;;;;;;;;5003573;28;20588;-78
2022/05/05 08:32:33;;;;;;;16.55;8.13;;;;;;;;;;4998505;28;20576;-77
2022/05/05 08:35:00;;;;;;;23.55;8.27;;;;;;;;;;5000362;28;20069;-77
2022/05/05 08:37:26;;;;;;;22.48;9.13;;;;;;;;;;4999399;28;20054;-78
2022/05/05 08:39:52;;;;;;;15.32;8.32;;;;;;;;;;5003725;28;20050;-78
2022/05/05 08:42:20;;;;;;;19.10;8.63;;;;;;;;;;5003649;28;20193;-78
2022/05/05 08:44:46;;;;;;;20.40;8.88;;;;;;;;;;4995063;28;20055;-78
2022/05/05 08:47:14;;;;;;;23.08;9.35;;;;;;;;;;4999324;28;20062;-78
2022/05/05 08:49:41;;;;;;;18.55;9.85;;;;;;;;;;5002374;28;20066;-78
2022/05/05 08:52:10;;;;;;;18.55;9.27;;;;;;;;;;5002408;28;20142;-78
2022/05/05 08:54:38;;;;;;;20.88;10.45;;;;;;;;;;5002448;28;20054;-78
2022/05/05 08:57:05;;;;;;;22.17;11.38;;;;;;;;;;5001811;28;20058;-78
2022/05/05 08:59:31;;;;;;;23.10;13.23;;;;;;;;;;5003440;28;21043;-78
2022/05/05 09:01:58;;;;;;;26.92;13.10;;;;;;;;;;5004555;28;20073;-78
2022/05/05 09:04:24;;;;;;;27.77;13.73;;;;;;;;;;5004941;28;20509;-78
2022/05/05 09:06:52;;;;;;;27.48;14.35;;;;;;;;;;5003601;28;20565;-78
2022/05/05 09:09:24;;;;;;;25.63;13.50;;;;;;;;;;5002981;28;20054;-77
2022/05/05 09:12:12;;;;;;;31.45;15.07;;;;;;;;;;4994084;28;20525;-78
2022/05/05 09:14:39;;;;;;;29.02;14.00;;;;;;;;;;5003637;28;20054;-78
2022/05/05 09:17:06;;;;;;;27.88;14.73;;;;;;;;;;5002443;28;20143;-78
2022/05/05 09:19:36;;;;;;;31.13;14.52;;;;;;;;;;5003337;28;20575;-78
2022/05/05 09:22:03;;;;;;;31.70;14.75;;;;;;;;;;5000405;28;20058;-78
2022/05/05 09:24:36;;;;;;;31.70;15.50;;;;;;;;;;5003700;28;20068;-78
2022/05/05 09:27:14;;;;;;;29.33;15.32;;;;;;;;;;5013108;28;20146;-78
2022/05/05 09:29:41;;;;;;;29.70;14.70;;;;;;;;;;5001963;28;20066;-78
2022/05/05 09:32:11;;;;;;;27.25;15.82;;;;;;;;;;5004228;28;20496;-78
2022/05/05 09:34:39;;;;;;;29.98;16.38;;;;;;;;;;5005225;28;20494;-78
2022/05/05 09:37:21;;;;;;;28.05;16.23;;;;;;;;;;5003767;28;20049;-78
2022/05/05 09:39:52;;;;;;;30.05;15.77;;;;;;;;;;4997309;28;20089;-78
2022/05/05 09:42:32;;;;;;;30.52;17.02;;;;;;;;;;5004446;28;20579;-78
2022/05/05 09:45:12;;;;;;;33.17;16.70;;;;;;;;;;5004189;28;20145;-79
2022/05/05 09:47:56;;;;;;;32.28;17.08;;;;;;;;;;4996270;28;20046;-78
2022/05/05 09:50:27;;;;;;;30.52;18.27;;;;;;;;;;5019342;28;20089;-78
2022/05/05 09:58:36;;;;;;;32.33;18.95;;;;;;;;;;5003308;28;20077;-77
2022/05/05 10:01:09;;;;;;;32.40;18.92;;;;;;;;;;5002642;28;20051;-77
2022/05/05 10:06:26;;;;;;;30.25;19.17;;;;;;;;;;4998133;28;20972;-78
2022/05/05 10:08:54;;;;;;;38.63;18.92;;;;;;;;;;5003377;28;20528;-77
2022/05/05 10:11:22;;;;;;;30.98;18.27;;;;;;;;;;5003486;28;20065;-77
2022/05/05 10:13:49;;;;;;;29.58;17.08;;;;;;;;;;5000778;28;20592;-77
2022/05/05 10:16:16;;;;;;;30.75;17.17;;;;;;;;;;5017271;28;20054;-77
2022/05/05 10:18:42;;;;;;;29.63;18.08;;;;;;;;;;5003344;28;20077;-77
2022/05/05 10:21:28;;;;;;;27.92;17.73;;;;;;;;;;5002495;28;20050;-77
2022/05/05 10:23:54;;;;;;;25.88;16.63;;;;;;;;;;4995708;28;20069;-77
2022/05/05 10:26:22;;;;;;;26.35;15.40;;;;;;;;;;5002688;28;20101;-77
2022/05/05 10:28:49;;;;;;;27.75;16.35;;;;;;;;;;5002719;28;20062;-77
2022/05/05 10:31:31;;;;;;;28.35;15.82;;;;;;;;;;5006435;28;20050;-77
2022/05/05 10:34:00;;;;;;;25.20;16.00;;;;;;;;;;5021557;28;20058;-77
2022/05/05 10:36:30;;;;;;;24.50;15.10;;;;;;;;;;5003985;28;20094;-77
2022/05/05 10:38:57;;;;;;;24.35;14.52;;;;;;;;;;5005007;28;20145;-77
2022/05/05 10:41:41;;;;;;;22.10;13.65;;;;;;;;;;5006278;28;20148;-77
2022/05/05 10:44:18;;;;;;;22.63;13.52;;;;;;;;;;5005756;28;20193;-77
2022/05/05 10:46:50;;;;;;;22.00;13.05;;;;;;;;;;5005139;28;20050;-77
2022/05/05 10:49:46;;;;;;;22.35;13.55;;;;;;;;;;5003328;28;20073;-77
2022/05/05 10:52:21;;;;;;;25.08;13.43;;;;;;;;;;4986613;28;20137;-77
2022/05/05 10:54:53;;;;;;;23.38;13.85;;;;;;;;;;5010276;28;20061;-77
2022/05/05 10:57:25;;;;;;;23.88;14.65;;;;;;;;;;5007977;28;20050;-78
2022/05/05 11:00:12;;;;;;;24.42;14.63;;;;;;;;;;5000669;28;20145;-77
2022/05/05 11:02:57;;;;;;;20.42;13.05;;;;;;;;;;5001258;28;20138;-78
2022/05/05 11:05:27;;;;;;;20.52;12.90;;;;;;;;;;4998708;28;20113;-77
2022/05/05 11:07:54;;;;;;;21.38;12.75;;;;;;;;;;5005197;28;20064;-78
2022/05/05 11:10:39;;;;;;;23.08;14.02;;;;;;;;;;5023030;28;20489;-78
2022/05/05 11:13:05;;;;;;;20.95;13.35;;;;;;;;;;5019551;28;20065;-77
2022/05/05 11:21:32;;;;;;;22.88;13.88;;;;;;;;;;5000719;28;20054;-78
2022/05/05 11:24:00;;;;;;;20.55;13.50;;;;;;;;;;5003434;28;20060;-77
2022/05/05 11:26:26;;;;;;;23.65;14.95;;;;;;;;;;4990983;28;20134;-78
2022/05/05 11:28:59;;;;;;;26.48;16.23;;;;;;;;;;5002239;28;20057;-77
2022/05/05 11:31:28;;;;;;;29.05;16.00;;;;;;;;;;4998139;28;20153;-76
2022/05/05 11:33:56;;;;;;;26.95;16.80;;;;;;;;;;5000288;28;20509;-76
2022/05/05 11:36:30;;;;;;;24.98;15.35;;;;;;;;;;5000680;28;20525;-78
2022/05/05 11:38:57;;;;;;;23.23;14.98;;;;;;;;;;5003123;28;20118;-77
2022/05/05 11:41:23;;;;;;;26.10;16.58;;;;;;;;;;4998432;28;20116;-77
2022/05/05 11:46:57;;;;;;;24.83;16.25;;;;;;;;;;4952954;28;20062;-77
2022/05/05 11:49:24;;;;;;;25.33;15.02;;;;;;;;;;4947282;28;20153;-77
2022/05/05 11:51:51;;;;;;;21.08;12.38;;;;;;;;;;4981083;28;20082;-80
2022/05/05 11:54:26;;;;;;;21.38;13.48;;;;;;;;;;4995886;28;20535;-77
2022/05/05 11:56:53;;;;;;;26.67;17.75;;;;;;;;;;5004163;28;20521;-77
2022/05/05 12:02:25;;;;;;;27.13;18.80;;;;;;;;;;5001323;28;20408;-77
2022/05/05 12:04:54;;;;;;;27.50;17.17;;;;;;;;;;5008950;28;20109;-81
2022/05/05 12:07:23;;;;;;;25.95;16.42;;;;;;;;;;5005685;28;20054;-80
2022/05/05 12:09:51;;;;;;;29.55;17.02;;;;;;;;;;5009444;28;20054;-79
2022/05/05 12:12:18;;;;;;;24.40;15.75;;;;;;;;;;5005101;28;20055;-83
2022/05/05 12:14:47;;;;;;;29.58;16.35;;;;;;;;;;5011140;28;20169;-82
2022/05/05 12:17:16;;;;;;;22.52;14.77;;;;;;;;;;5006189;28;20105;-84
2022/05/05 12:19:45;;;;;;;18.80;13.70;;;;;;;;;;5011507;28;20050;-80
2022/05/05 12:22:20;;;;;;;20.63;12.13;;;;;;;;;;5004015;28;21740;-84
2022/05/05 12:24:46;;;;;;;19.77;13.15;;;;;;;;;;5002794;28;20054;-83
2022/05/05 12:27:13;;;;;;;22.73;13.80;;;;;;;;;;5018984;28;20078;-82
2022/05/05 12:29:40;;;;;;;26.63;16.98;;;;;;;;;;5012576;28;20097;-81
2022/05/05 12:32:10;;;;;;;21.85;15.60;;;;;;;;;;5002335;28;20523;-81
2022/05/05 12:34:37;;;;;;;23.30;15.02;;;;;;;;;;4995634;28;20062;-80
2022/05/05 12:37:09;;;;;;;20.20;14.38;;;;;;;;;;5004813;28;20053;-81
2022/05/05 12:39:47;;;;;;;23.27;15.23;;;;;;;;;;4997204;28;20137;-81
2022/05/05 12:42:14;;;;;;;21.98;14.20;;;;;;;;;;5003429;28;20444;-80
2022/05/05 12:44:44;;;;;;;23.50;14.90;;;;;;;;;;5006424;28;20129;-79
2022/05/05 12:47:10;;;;;;;24.83;16.80;;;;;;;;;;5007236;28;20185;-79
2022/05/05 12:49:37;;;;;;;24.58;13.40;;;;;;;;;;5005311;28;20196;-79
2022/05/05 12:52:04;;;;;;;19.88;13.75;;;;;;;;;;5005740;28;20096;-79
2022/05/05 13:00:04;;;;;;;25.92;15.73;;;;;;;;;;4995086;28;20138;-79
2022/05/05 13:02:52;;;;;;;22.50;14.98;;;;;;;;;;5008626;28;20062;-78
2022/05/05 13:05:21;;;;;;;23.88;15.60;;;;;;;;;;5007300;28;20054;-78
2022/05/05 13:07:48;;;;;;;23.00;15.83;;;;;;;;;;5005845;28;20060;-79
2022/05/05 13:10:14;;;;;;;25.10;16.63;;;;;;;;;;5005814;28;20380;-78
2022/05/05 13:12:42;;;;;;;26.70;16.48;;;;;;;;;;5005551;28;20876;-78
2022/05/05 13:15:08;;;;;;;24.38;15.00;;;;;;;;;;5005675;28;20066;-78
2022/05/05 13:17:35;;;;;;;22.75;15.25;;;;;;;;;;5005225;28;20269;-78
2022/05/05 13:20:01;;;;;;;22.17;15.38;;;;;;;;;;5001196;28;20093;-78
2022/05/05 13:22:29;;;;;;;20.58;14.07;;;;;;;;;;5003167;28;20583;-78
2022/05/05 13:24:56;;;;;;;22.48;15.65;;;;;;;;;;5003416;28;20883;-78
2022/05/05 13:27:23;;;;;;;24.50;15.50;;;;;;;;;;5002205;28;20054;-78
2022/05/05 13:29:49;;;;;;;20.58;13.88;;;;;;;;;;5001273;28;20137;-78
2022/05/05 13:32:16;;;;;;;20.50;13.55;;;;;;;;;;4997699;28;20063;-79
2022/05/05 13:34:42;;;;;;;18.92;12.20;;;;;;;;;;5000291;28;20519;-78
2022/05/05 13:37:09;;;;;;;21.52;13.43;;;;;;;;;;5000629;28;20050;-79
2022/05/05 13:39:35;;;;;;;18.05;11.82;;;;;;;;;;4994118;28;20038;-80
2022/05/05 13:42:03;;;;;;;17.23;11.60;;;;;;;;;;5008688;28;20588;-79
2022/05/05 13:44:29;;;;;;;17.85;11.02;;;;;;;;;;5005997;28;20149;-79
2022/05/05 13:46:55;;;;;;;19.88;13.38;;;;;;;;;;5002921;28;20161;-79
2022/05/05 13:49:22;;;;;;;18.10;12.20;;;;;;;;;;5003586;28;20330;-79
2022/05/05 13:51:48;;;;;;;17.17;11.07;;;;;;;;;;5001335;28;20882;-80
2022/05/05 13:54:34;;;;;;;16.55;9.98;;;;;;;;;;5003682;28;20497;-80
2022/05/05 13:57:01;;;;;;;16.88;10.45;;;;;;;;;;5006539;28;20113;-80
2022/05/05 13:59:27;;;;;;;17.83;10.88;;;;;;;;;;5007427;28;20054;-79
2022/05/05 14:01:53;;;;;;;16.55;10.02;;;;;;;;;;5008235;28;20517;-80
2022/05/05 14:04:20;;;;;;;17.83;10.35;;;;;;;;;;5005802;28;20128;-80
2022/05/05 14:06:46;;;;;;;16.17;10.98;;;;;;;;;;5008226;28;20133;-80
2022/05/05 14:12:15;;;;;;;18.60;11.50;;;;;;;;;;4996811;28;20535;-79
2022/05/05 14:14:42;;;;;;;18.92;12.00;;;;;;;;;;5008626;28;20125;-80
2022/05/05 14:17:10;;;;;;;16.52;10.90;;;;;;;;;;5011530;28;20054;-80
2022/05/05 14:19:37;;;;;;;19.45;12.00;;;;;;;;;;5010782;28;20051;-80
2022/05/05 14:22:03;;;;;;;18.85;12.25;;;;;;;;;;5009774;28;20565;-80
2022/05/05 14:24:30;;;;;;;18.13;12.10;;;;;;;;;;4989558;28;20145;-79
2022/05/05 14:26:56;;;;;;;21.10;12.10;;;;;;;;;;5005671;28;20596;-79
2022/05/05 14:29:23;;;;;;;17.85;11.77;;;;;;;;;;5010742;28;20852;-79
2022/05/05 14:31:49;;;;;;;19.40;11.18;;;;;;;;;;5009289;28;20058;-80
2022/05/05 14:34:15;;;;;;;18.17;11.93;;;;;;;;;;5023511;28;20062;-80
2022/05/05 14:36:42;;;;;;;19.00;11.77;;;;;;;;;;5005487;28;20069;-80
2022/05/05 14:39:11;;;;;;;18.75;12.25;;;;;;;;;;5011150;28;20059;-79
2022/05/05 14:41:37;;;;;;;21.93;13.40;;;;;;;;;;5008036;28;20058;-79
2022/05/05 14:44:04;;;;;;;22.48;13.40;;;;;;;;;;5004896;28;20059;-80
2022/05/05 14:46:32;;;;;;;18.25;12.57;;;;;;;;;;4990155;28;20218;-79
2022/05/05 14:48:58;;;;;;;19.40;12.70;;;;;;;;;;5003026;28;20062;-80
2022/05/05 14:51:25;;;;;;;19.95;14.30;;;;;;;;;;5015689;28;20058;-81
2022/05/05 14:53:51;;;;;;;21.73;12.63;;;;;;;;;;5010793;28;20168;-79
2022/05/05 14:56:18;;;;;;;19.38;12.27;;;;;;;;;;5006334;28;20161;-79
2022/05/05 14:58:44;;;;;;;19.60;12.43;;;;;;;;;;5005265;28;20056;-80
2022/05/05 15:01:10;;;;;;;21.80;13.82;;;;;;;;;;5008214;28;20064;-80
2022/05/05 15:03:38;;;;;;;17.58;11.68;;;;;;;;;;5008687;28;20131;-80
2022/05/05 15:06:05;;;;;;;22.27;13.05;;;;;;;;;;5019910;28;20070;-80
2022/05/05 15:08:31;;;;;;;20.45;12.65;;;;;;;;;;5005502;28;20089;-80
2022/05/05 15:10:58;;;;;;;18.58;12.18;;;;;;;;;;5007801;28;20141;-80
2022/05/05 15:13:24;;;;;;;22.33;12.80;;;;;;;;;;5003743;28;20074;-79